Flight Track Log - Related Links

Times and Time Zones

All times are in EDT time to prevent confusion due to time zone crossing. See the DAL1118 flight status page for this flight to view local times or setup timezone preferences in your user account.

Time Position Orientation Groundspeed Altitude Reporting Facility
EDT Latitude Longitude Course Direction KTS MPH feet Rate Location/Type
Fri 02:49:45 PM 44.8833 -93.3167 196° South 207 238 3,400  Level Minneapolis TRACON
Fri 02:50:48 PM 44.8583 -93.3958 246° West 276 318 5,700 2,400 Climbing Minneapolis Center
Fri 02:51:50 PM 44.7878 -93.4400 204° Southwest 282 325 8,400 2,468 Climbing Minneapolis Center
Fri 02:52:00 PM 44.4294 -93.3905 198° South  Level Estimated
Fri 02:52:52 PM 44.7117 -93.4814 201° Southwest 296 341 10,800  Level Minneapolis Center
Fri 02:53:00 PM 44.3163 -93.4323 200° South  Level Estimated
Fri 02:53:54 PM 44.6028 -93.5358 200° South 357 411 12,700  Level Minneapolis Center
Fri 02:54:00 PM 44.2031 -93.4739 200° South  Level Estimated
Fri 02:54:56 PM 44.5047 -93.5844 199° South 372 428 15,100  Level Minneapolis Center
Fri 02:55:00 PM 44.0899 -93.5153 196° South  Level Estimated
Fri 02:55:59 PM 44.4058 -93.6364 201° Southwest 377 434 17,300  Level Minneapolis Center
Fri 02:57:01 PM 44.3119 -93.7136 210° Southwest 388 447 19,500 1,790 Climbing Minneapolis Center
Fri 02:58:03 PM 44.2175 -93.7894 210° Southwest 391 450 21,000 1,694 Climbing Minneapolis Center
Fri 02:59:05 PM 44.0975 -93.8858 210° Southwest 415 478 23,000 1,548 Climbing Minneapolis Center
Fri 03:00:07 PM 43.9944 -93.9686 210° Southwest 424 488 24,200 1,306 Climbing Minneapolis Center
Fri 03:01:09 PM 43.8894 -94.0519 210° Southwest 430 495 25,700 1,306 Climbing Minneapolis Center
Fri 03:02:11 PM 43.7828 -94.1364 210° Southwest 440 506 26,900 1,113 Climbing Minneapolis Center
Fri 03:03:13 PM 43.6742 -94.2217 210° Southwest 445 512 28,000 1,008 Climbing Minneapolis Center
Fri 03:04:16 PM 43.5703 -94.3206 215° Southwest 452 520 29,000 960 Climbing Minneapolis Center
Fri 03:05:18 PM 43.4475 -94.4381 215° Southwest 452 520 30,000 532 Climbing Minneapolis Center
Fri 03:06:20 PM 43.3467 -94.5358 215° Southwest 449 517 30,100 726 Climbing Minneapolis Center
Fri 03:07:22 PM 43.2436 -94.6328 214° Southwest 446 513 31,500 968 Climbing Minneapolis Center
Fri 03:08:24 PM 43.1428 -94.7275 214° Southwest 442 509 32,100 242 Climbing Minneapolis Center
Fri 03:09:26 PM 43.0444 -94.8225 215° Southwest 440 506 32,000 -387 Descending Minneapolis Center
Fri 03:10:28 PM 42.9444 -94.9147 214° Southwest 438 504 31,300 -919 Descending Minneapolis Center
Fri 03:11:30 PM 42.8253 -95.0286 215° Southwest 437 503 30,100 -629 Descending Minneapolis Center
Fri 03:12:32 PM 42.7231 -95.1225 214° Southwest 440 506 30,000 -48 Descending Minneapolis Center
Fri 03:13:34 PM 42.6236 -95.2178 215° Southwest 440 506 30,000  Level Minneapolis Center
Fri 03:14:37 PM 42.5228 -95.3081 213° Southwest 439 505 30,000  Level Minneapolis Center
Fri 03:15:39 PM 42.4233 -95.4014 215° Southwest 439 505 30,000  Level Minneapolis Center
Fri 03:16:41 PM 42.3300 -95.5083 220° Southwest 438 504 30,000  Level Minneapolis Center
Fri 03:17:43 PM 42.2219 -95.6417 222° Southwest 439 505 30,000  Level Minneapolis Center
Fri 03:18:45 PM 42.1283 -95.7481 220° Southwest 440 506 30,000  Level Minneapolis Center
Fri 03:19:47 PM 42.0356 -95.8542 220° Southwest 440 506 30,000  Level Minneapolis Center
Fri 03:20:49 PM 41.9436 -95.9592 220° Southwest 440 506 30,000  Level Minneapolis Center
Fri 03:21:51 PM 41.8506 -96.0656 220° Southwest 440 506 30,000  Level Minneapolis Center
Fri 03:22:53 PM 41.7603 -96.1689 221° Southwest 434 499 30,000  Level Minneapolis Center
Fri 03:23:55 PM 41.6517 -96.2908 220° Southwest 432 497 30,000  Level Minneapolis Center
Fri 03:24:57 PM 41.5628 -96.3911 220° Southwest 430 495 30,000  Level Minneapolis Center
Fri 03:25:59 PM 41.4728 -96.4922 220° Southwest 427 491 30,000  Level Minneapolis Center
Fri 03:27:01 PM 41.3819 -96.5922 220° Southwest 427 491 30,000  Level Minneapolis Center
Fri 03:28:03 PM 41.2917 -96.6928 220° Southwest 427 491 30,000  Level Minneapolis Center
Fri 03:29:05 PM 41.1828 -96.8117 219° Southwest 426 490 30,000  Level Minneapolis Center
Fri 03:30:07 PM 41.0931 -96.9108 220° Southwest 424 488 30,000  Level Minneapolis Center
Fri 03:31:09 PM 41.0033 -97.0094 220° Southwest 423 487 30,000  Level Minneapolis Center
Fri 03:32:11 PM 40.9128 -97.1086 220° Southwest 423 487 30,000  Level Minneapolis Center
Fri 03:33:13 PM 40.8233 -97.2067 220° Southwest 423 487 30,000  Level Minneapolis Center
Fri 03:34:15 PM 40.7322 -97.3033 219° Southwest 423 487 30,000  Level Minneapolis Center
Fri 03:36:19 PM 40.4667 -97.3328 185° South 446 513 30,000  Level Minneapolis Center
Fri 03:37:21 PM 40.3425 -97.3269 178° South 446 513 30,000  Level Minneapolis Center
Fri 03:38:23 PM 40.2206 -97.3200 178° South 444 511 30,000  Level Minneapolis Center
Fri 03:39:25 PM 40.0967 -97.3150 178° South 444 511 30,000  Level Minneapolis Center
Fri 03:40:27 PM 39.9739 -97.3089 178° South 444 511 30,000  Level Minneapolis Center
Fri 03:41:28 PM 39.8272 -97.3011 178° South 443 510 30,000 146 Level Minneapolis Center
Fri 03:42:30 PM 39.7044 -97.2967 178° South 443 510 30,300 871 Climbing Minneapolis Center
Fri 03:43:32 PM 39.5803 -97.2897 178° South 443 510 31,800 823 Climbing Minneapolis Center
Fri 03:44:34 PM 39.4592 -97.2831 178° South 443 510 32,000 97 Climbing Minneapolis Center
Fri 03:45:36 PM 39.3408 -97.2792 179° South 436 502 32,000  Level Minneapolis Center
Fri 03:46:38 PM 39.2208 -97.2750 178° South 434 499 32,000  Level Minneapolis Center
Fri 03:47:40 PM 39.0758 -97.2650 177° South 434 499 32,000  Level Minneapolis Center
Fri 03:48:59 PM 38.9450 -97.2608 179° South 432 497 32,000 557 Level Kansas City Center
Fri 03:50:00 PM 38.8008 -97.2536 178° South 432 497 33,300 960 Climbing Kansas City Center
Fri 03:51:04 PM 38.6817 -97.2486 178° South 432 497 34,000 339 Climbing Kansas City Center
Fri 03:52:04 PM 38.5625 -97.2425 178° South 428 493 34,000  Level Kansas City Center
Fri 03:53:08 PM 38.4431 -97.2364 178° South 428 493 34,000  Level Kansas City Center
Fri 03:54:08 PM 38.3231 -97.2303 178° South 429 494 34,000  Level Kansas City Center
Fri 03:55:12 PM 38.2022 -97.2244 178° South 429 494 34,000  Level Kansas City Center
Fri 03:56:12 PM 38.0822 -97.1969 170° South 438 504 34,000  Level Kansas City Center
Fri 03:57:16 PM 37.9369 -97.1500 166° South 444 511 34,000  Level Kansas City Center
Fri 03:58:17 PM 37.8156 -97.1094 165° South 445 512 34,000  Level Kansas City Center
Fri 03:59:20 PM 37.6933 -97.0733 167° South 446 513 34,000  Level Kansas City Center
Fri 04:00:20 PM 37.5717 -97.0369 167° South 446 513 34,000 97 Level Kansas City Center
Fri 04:01:24 PM 37.4514 -97.0064 169° South 442 509 34,200 480 Climbing Kansas City Center
Fri 04:02:25 PM 37.3311 -96.9817 171° South 440 506 35,000 528 Climbing Kansas City Center
Fri 04:03:29 PM 37.2103 -96.9656 174° South 438 504 35,300 484 Climbing Kansas City Center
Fri 04:04:29 PM 37.0678 -96.9753 183° South 429 494 36,000 339 Climbing Kansas City Center
Fri 04:05:33 PM 36.9481 -96.9839 183° South 429 494 36,000  Level Kansas City Center
Fri 04:06:33 PM 36.8206 -96.9925 183° South 420 483 36,000  Level Kansas City Center
Fri 04:07:37 PM 36.7031 -97.0000 183° South 418 481 36,000  Level Kansas City Center
Fri 04:08:37 PM 36.5778 -97.0081 183° South 429 494 36,000  Level Kansas City Center
Fri 04:09:39 PM 36.4578 -97.0175 184° South 429 494 36,000  Level Kansas City Center
Fri 04:10:42 PM 36.3375 -97.0258 183° South 430 495 36,000  Level Kansas City Center
Fri 04:11:43 PM 36.2186 -97.0333 183° South 430 495 36,000  Level Kansas City Center
Fri 04:12:47 PM 36.0967 -97.0431 184° South 432 497 36,000  Level Kansas City Center
Fri 04:13:48 PM 35.9522 -97.0525 183° South 432 497 36,000  Level Kansas City Center
Fri 04:14:49 PM 35.8311 -97.0603 183° South 433 498 36,000  Level Kansas City Center
Fri 04:15:53 PM 35.7092 -97.0661 182° South 433 498 36,000  Level Kansas City Center
Fri 04:17:00 PM 35.5617 -97.0733 182° South 437 503 36,000  Level Fort Worth Center
Fri 04:18:02 PM 35.4389 -97.0789 182° South 439 505 36,000 -194 Level Fort Worth Center
Fri 04:19:04 PM 35.3156 -97.0836 182° South 437 503 35,600 -484 Descending Fort Worth Center
Fri 04:20:06 PM 35.1933 -97.0928 184° South 436 502 35,000 -290 Descending Fort Worth Center
Fri 04:21:08 PM 35.0686 -97.1006 183° South 440 506 35,000  Level Fort Worth Center
Fri 04:22:10 PM 34.9444 -97.1069 182° South 442 509 35,000  Level Fort Worth Center
Fri 04:23:12 PM 34.8203 -97.1136 183° South 442 509 35,000  Level Fort Worth Center
Fri 04:24:15 PM 34.6956 -97.1203 183° South 444 511 35,000  Level Fort Worth Center
Fri 04:25:17 PM 34.5478 -97.1261 182° South 444 511 35,000  Level Fort Worth Center
Fri 04:26:19 PM 34.4236 -97.1331 183° South 445 512 35,000  Level Fort Worth Center
Fri 04:27:21 PM 34.2981 -97.1406 183° South 450 518 35,000  Level Fort Worth Center
Fri 04:28:23 PM 34.1717 -97.1472 182° South 454 522 35,000  Level Fort Worth Center
Fri 04:29:25 PM 34.0336 -97.1533 182° South 452 520 35,000 -48 Level Fort Worth Center
Fri 04:30:27 PM 33.9075 -97.1600 183° South 452 520 34,900 -48 Descending Fort Worth Center
Fri 04:31:29 PM 33.7814 -97.1639 181° South 453 521 34,900 48 Level Fort Worth Center
Fri 04:32:31 PM 33.6536 -97.1722 183° South 455 524 35,000 48 Climbing Fort Worth Center
Fri 04:33:33 PM 33.5267 -97.1769 182° South 457 526 35,000  Level Fort Worth Center
Fri 04:34:36 PM 33.3722 -97.1847 182° South 458 527 35,000  Level Fort Worth Center
Fri 04:35:38 PM 33.2447 -97.1908 182° South 459 528 35,000 -97 Level Fort Worth Center
Fri 04:36:40 PM 33.1197 -97.1983 183° South 456 525 34,800 -774 Descending Fort Worth Center
Fri 04:37:42 PM 32.9936 -97.2050 183° South 457 526 33,400 -1,645 Descending Fort Worth Center
Fri 04:38:44 PM 32.8650 -97.2114 182° South 458 527 31,400 -1,161 Descending Fort Worth Center
Fri 04:39:46 PM 32.7175 -97.2183 182° South 472 543 31,000 -242 Descending Fort Worth Center
Fri 04:40:48 PM 32.5864 -97.2247 182° South 472 543 30,900  Descending Fort Worth Center
Fri 04:41:50 PM 32.4567 -97.2306 182° South 469 540 31,000 48 Climbing Fort Worth Center
Fri 04:42:52 PM 32.2997 -97.2381 182° South 469 540 31,000 -48 Level Fort Worth Center
Fri 04:43:54 PM 32.1689 -97.2442 182° South 469 540 30,900  Descending Fort Worth Center
Fri 04:44:57 PM 32.0369 -97.2500 182° South 472 543 31,000 48 Climbing Fort Worth Center
Fri 04:45:59 PM 31.8950 -97.2569 182° South 471 542 31,000 -484 Level Fort Worth Center
Fri 04:47:01 PM 31.7650 -97.2625 182° South 471 542 30,000 -919 Descending Fort Worth Center
Fri 04:48:03 PM 31.6364 -97.2675 182° South 465 535 29,100 -1,210 Descending Fort Worth Center
Fri 04:49:05 PM 31.5103 -97.2486 173° South 459 528 27,500 -1,839 Descending Fort Worth Center
Fri 04:50:07 PM 31.3883 -97.2328 174° South 443 510 25,300 -2,112 Descending Fort Worth Center
Fri 04:51:10 PM 31.2722 -97.2172 173° South 422 486 23,100 -2,323 Descending Fort Worth Center
Fri 04:52:11 PM 31.1428 -97.2350 187° South 399 459 20,500 -2,390 Descending Fort Worth Center
Fri 04:53:13 PM 31.0425 -97.2744 199° South 386 444 18,200 -2,129 Descending Fort Worth Center
Fri 04:54:15 PM 30.9494 -97.3142 200° South 377 434 16,100 -2,098 Descending Fort Worth Center
Fri 04:55:16 PM 30.8594 -97.3553 201° Southwest 361 415 13,900 -2,341 Descending Houston Center
Fri 04:56:18 PM 30.7606 -97.4200 209° Southwest 343 395 11,300 -1,694 Descending Houston Center
Fri 04:57:20 PM 30.6842 -97.4700 209° Southwest 322 371 10,400 -1,065 Descending Houston Center
Fri 04:58:22 PM 30.6183 -97.5128 209° Southwest 284 327 9,100 -1,742 Descending Houston Center
Fri 04:59:24 PM 30.5550 -97.5544 210° Southwest 267 307 6,800 -2,274 Descending Houston Center
Fri 05:00:26 PM 30.4925 -97.5936 208° Southwest 260 299 4,400 -1,839 Descending Houston Center
Fri 05:01:28 PM 30.4319 -97.6344 210° Southwest 256 295 3,000 -672 Descending Houston Center
Fri 05:02:31 PM 30.3669 -97.6639 201° Southwest 227 261 3,000 -192 Level Houston Center
Fri 05:03:33 PM 30.3186 -97.6614 177° South 186 214 2,600 -581 Descending Houston Center
Fri 05:04:35 PM 30.2719 -97.6600 179° South 177 204 1,800 -726 Descending Houston Center
Fri 05:05:37 PM 30.2344 -97.6583 178° South 155 178 1,100 -435 Descending Houston Center
Fri 05:06:39 PM 30.1897 -97.6561 178° South 148 170 900 -194 Descending Houston Center

Login

Don't have an account? Register now (free) for customized features, flight alerts, and more!